Time;durP1;ratioP1;P1;durP2;ratioP2;P2;SDS_P1;SDS_P2;PMS_P1;PMS_P2;Temp;Humidity;BMP_temperature;BMP_pressure;BME280_temperature;BME280_humidity;BME280_pressure;Samples;Min_cycle;Max_cycle;Signal;HPM_P1;HPM_P2
2023/10/11 00:00:41;;;;;;;11.80;7.20;;;;;;;1.57;72.21;101516.89;107933;1256;74743;-68
2023/10/11 00:03:17;;;;;;;13.70;7.40;;;;;;;1.61;72.35;101512.38;107941;1255;72735;-68
2023/10/11 00:05:46;;;;;;;11.50;7.20;;;;;;;1.64;72.17;101513.21;107933;1257;74888;-68
2023/10/11 00:08:18;;;;;;;12.10;7.60;;;;;;;1.68;72.25;101514.80;107997;1257;59445;-69
2023/10/11 00:10:53;;;;;;;10.30;7.10;;;;;;;1.66;72.05;101517.05;107948;1257;61133;-69
2023/10/11 00:13:22;;;;;;;10.40;7.20;;;;;;;1.69;72.20;101514.39;107977;1254;73516;-69
2023/10/11 00:15:52;;;;;;;10.40;7.40;;;;;;;1.75;72.19;101513.61;107989;1257;72787;-69
2023/10/11 00:18:21;;;;;;;12.00;7.30;;;;;;;1.77;72.29;101511.38;107954;1257;73599;-68
2023/10/11 00:20:52;;;;;;;10.30;7.10;;;;;;;1.77;72.01;101507.92;107941;1257;61096;-68
2023/10/11 00:23:23;;;;;;;11.80;6.90;;;;;;;1.71;71.88;101505.80;107941;1254;61118;-69
2023/10/11 00:25:53;;;;;;;11.10;7.40;;;;;;;1.59;71.98;101504.68;108025;1257;73641;-69
2023/10/11 00:28:26;;;;;;;12.00;7.50;;;;;;;1.47;71.91;101503.89;107988;1254;71014;-68
2023/10/11 00:30:56;;;;;;;13.90;7.30;;;;;;;1.40;72.18;101506.67;108037;1257;72652;-69
2023/10/11 00:33:24;;;;;;;12.00;7.80;;;;;;;1.40;72.27;101507.73;108032;1259;61007;-69
2023/10/11 00:36:06;;;;;;;11.60;7.80;;;;;;;1.44;72.53;101513.20;107809;1257;61142;-69
2023/10/11 00:38:43;;;;;;;11.70;7.20;;;;;;;1.48;72.43;101518.21;108025;1259;73446;-69
2023/10/11 00:41:20;;;;;;;11.70;6.80;;;;;;;1.52;72.28;101519.27;108010;1254;72624;-69
2023/10/11 00:43:52;;;;;;;10.30;6.90;;;;;;;1.57;72.39;101515.48;107893;1257;71529;-69
2023/10/11 00:46:38;;;;;;;11.20;6.90;;;;;;;1.61;72.37;101515.15;107907;1261;60072;-69
2023/10/11 00:51:33;;;;;;;11.90;7.00;;;;;;;1.46;72.21;101521.10;108037;1257;72781;-69
2023/10/11 00:54:04;;;;;;;10.70;6.90;;;;;;;1.43;72.51;101523.87;107889;1257;75339;-69
2023/10/11 00:56:32;;;;;;;12.10;7.00;;;;;;;1.47;72.47;101526.59;107950;1257;71810;-69
2023/10/11 00:59:10;;;;;;;14.10;7.70;;;;;;;1.52;72.38;101532.70;108019;1256;61204;-69
2023/10/11 01:01:38;;;;;;;14.00;8.70;;;;;;;1.53;72.85;101533.78;107773;1257;61183;-69
2023/10/11 01:04:06;;;;;;;14.90;8.70;;;;;;;1.54;72.99;101536.96;107835;1257;74666;-69
2023/10/11 01:06:35;;;;;;;18.50;9.40;;;;;;;1.55;73.19;101541.08;107870;1257;72742;-69
2023/10/11 01:09:24;;;;;;;18.30;10.30;;;;;;;1.56;73.76;101543.09;107939;1256;72007;-70
2023/10/11 01:11:53;;;;;;;18.50;9.60;;;;;;;1.63;73.76;101544.70;107951;1257;62033;-69
2023/10/11 01:14:23;;;;;;;14.80;8.50;;;;;;;1.75;74.16;101547.77;108403;1255;59708;-67
2023/10/11 01:16:51;;;;;;;13.50;7.90;;;;;;;1.80;73.98;101544.45;107957;1259;74815;-68
2023/10/11 01:19:20;;;;;;;15.70;8.30;;;;;;;1.75;73.87;101537.07;107938;1257;70948;-68
2023/10/11 01:21:54;;;;;;;12.40;7.40;;;;;;;1.69;73.98;101542.52;108041;1257;72517;-69
2023/10/11 01:24:22;;;;;;;13.40;7.30;;;;;;;1.60;73.95;101540.64;107924;1257;61202;-69
2023/10/11 01:26:50;;;;;;;10.80;7.40;;;;;;;1.55;74.18;101547.46;107946;1257;61311;-69
2023/10/11 01:29:17;;;;;;;11.40;7.50;;;;;;;1.54;74.28;101549.64;107919;1257;74739;-69
2023/10/11 01:31:46;;;;;;;16.10;7.70;;;;;;;1.54;74.33;101554.09;107962;1254;72686;-69
2023/10/11 01:34:18;;;;;;;10.10;6.40;;;;;;;1.52;74.18;101556.44;107940;1257;73415;-69
2023/10/11 01:36:46;;;;;;;12.90;6.90;;;;;;;1.45;74.47;101558.73;108000;1256;61148;-69
2023/10/11 01:39:14;;;;;;;12.60;7.50;;;;;;;1.37;74.43;101560.65;108001;1259;61214;-69
2023/10/11 01:41:42;;;;;;;11.90;7.40;;;;;;;1.35;74.55;101560.49;108018;1255;73369;-68
2023/10/11 01:44:11;;;;;;;11.20;7.00;;;;;;;1.38;74.41;101567.39;107945;1257;72494;-68
2023/10/11 01:46:40;;;;;;;10.20;6.90;;;;;;;1.38;74.33;101566.54;107997;1255;72729;-68
2023/10/11 01:49:10;;;;;;;11.40;7.30;;;;;;;1.35;74.56;101570.04;108007;1256;61238;-69
2023/10/11 01:51:39;;;;;;;11.30;7.30;;;;;;;1.33;74.42;101568.95;107977;1257;61148;-68
2023/10/11 01:54:07;;;;;;;10.10;6.90;;;;;;;1.36;74.39;101572.04;107923;1257;76842;-69
2023/10/11 01:56:35;;;;;;;11.90;6.80;;;;;;;1.35;74.46;101570.02;108060;1255;72915;-70
2023/10/11 01:59:04;;;;;;;11.50;6.90;;;;;;;1.37;74.28;101570.20;107848;1257;72680;-70
2023/10/11 02:01:41;;;;;;;10.60;7.00;;;;;;;1.33;74.18;101573.21;108002;1257;61326;-69
2023/10/11 02:04:20;;;;;;;10.50;6.60;;;;;;;1.28;74.22;101574.73;107994;1257;60542;-69
2023/10/11 02:06:48;;;;;;;10.50;7.30;;;;;;;1.19;74.14;101574.64;107986;1257;74762;-70
2023/10/11 02:09:20;;;;;;;12.50;7.70;;;;;;;1.11;73.85;101575.79;107882;1257;72711;-68
2023/10/11 02:11:54;;;;;;;11.40;7.30;;;;;;;1.05;74.25;101578.86;108037;1257;71440;-68
2023/10/11 02:14:23;;;;;;;14.30;8.10;;;;;;;0.96;74.13;101580.63;107985;1259;61126;-69
2023/10/11 02:16:54;;;;;;;13.20;8.20;;;;;;;0.90;74.34;101581.17;107899;1257;61183;-68
2023/10/11 02:19:23;;;;;;;10.60;7.40;;;;;;;0.86;74.40;101584.38;107969;1254;73449;-68
2023/10/11 02:21:53;;;;;;;13.90;8.70;;;;;;;0.79;74.42;101587.23;107865;1257;71452;-69
2023/10/11 02:24:25;;;;;;;12.30;8.00;;;;;;;0.75;74.52;101587.79;108062;1254;74564;-68
2023/10/11 02:26:55;;;;;;;13.20;8.80;;;;;;;0.75;74.46;101590.53;107980;1257;61618;-69
2023/10/11 02:29:25;;;;;;;11.70;7.60;;;;;;;0.78;74.61;101595.59;108054;1256;61122;-68
2023/10/11 02:31:54;;;;;;;14.80;9.40;;;;;;;0.80;74.69;101606.96;107880;1257;74776;-68
2023/10/11 02:34:23;;;;;;;14.20;8.00;;;;;;;0.83;74.60;101611.20;107951;1254;71689;-69
2023/10/11 02:37:10;;;;;;;10.40;7.20;;;;;;;0.85;74.58;101612.77;108011;1257;71437;-69
2023/10/11 02:39:45;;;;;;;10.80;7.40;;;;;;;0.86;74.71;101614.39;108046;1257;61335;-69
2023/10/11 02:42:19;;;;;;;11.10;7.10;;;;;;;0.85;74.39;101611.68;108006;1257;61103;-68
2023/10/11 02:44:48;;;;;;;12.10;8.00;;;;;;;0.84;74.31;101611.98;107844;1258;73420;-69
2023/10/11 02:47:22;;;;;;;13.20;8.10;;;;;;;0.83;74.34;101610.87;107910;1257;71544;-68
2023/10/11 02:49:53;;;;;;;10.40;7.10;;;;;;;0.86;74.42;101611.95;107834;1257;71376;-69
2023/10/11 02:52:35;;;;;;;11.30;7.50;;;;;;;0.88;74.21;101613.52;108030;1257;61257;-69
2023/10/11 02:57:47;;;;;;;12.10;7.40;;;;;;;0.79;74.45;101612.20;108041;1257;73420;-68
2023/10/11 03:00:23;;;;;;;12.60;7.80;;;;;;;0.69;74.38;101614.12;108037;1257;72825;-68
2023/10/11 03:02:56;;;;;;;11.30;7.40;;;;;;;0.62;74.49;101620.69;107908;1257;72805;-68
2023/10/11 03:05:28;;;;;;;11.60;7.70;;;;;;;0.60;74.61;101618.02;107987;1257;61147;-68
2023/10/11 03:08:19;;;;;;;11.90;7.50;;;;;;;0.65;74.54;101621.08;107991;1256;61133;-68
2023/10/11 03:10:56;;;;;;;10.80;7.00;;;;;;;0.65;74.69;101623.67;108020;1259;74680;-68
2023/10/11 03:13:24;;;;;;;13.60;8.20;;;;;;;0.61;74.74;101624.56;107978;1257;72704;-68
2023/10/11 03:15:55;;;;;;;14.00;8.40;;;;;;;0.58;74.72;101626.34;107865;1257;72508;-68
2023/10/11 03:18:36;;;;;;;14.10;8.00;;;;;;;0.63;74.83;101627.20;107970;1257;61000;-68
2023/10/11 03:21:17;;;;;;;13.40;8.50;;;;;;;0.74;75.05;101624.00;107984;1259;60986;-68
2023/10/11 03:23:47;;;;;;;12.20;7.90;;;;;;;0.82;75.13;101618.31;107880;1255;73444;-69
2023/10/11 03:26:22;;;;;;;12.20;7.70;;;;;;;0.86;74.97;101618.79;108035;1260;70633;-67
2023/10/11 03:28:59;;;;;;;12.60;7.70;;;;;;;0.87;74.76;101619.35;107904;1261;72746;-68
2023/10/11 03:31:29;;;;;;;11.90;7.70;;;;;;;0.83;74.87;101617.58;108019;1257;61266;-67
2023/10/11 03:34:00;;;;;;;12.40;7.90;;;;;;;0.75;74.63;101616.17;108074;1255;61001;-68
2023/10/11 03:36:35;;;;;;;13.20;7.90;;;;;;;0.69;74.71;101619.20;108069;1257;73056;-69
2023/10/11 03:39:10;;;;;;;13.80;8.40;;;;;;;0.72;74.79;101620.62;107863;1257;72872;-68
2023/10/11 03:41:44;;;;;;;13.80;8.60;;;;;;;0.79;74.90;101617.81;108014;1260;72354;-68
2023/10/11 03:44:17;;;;;;;14.20;8.70;;;;;;;0.84;74.91;101624.05;107990;1257;60988;-69
2023/10/11 03:46:47;;;;;;;12.40;7.80;;;;;;;0.86;74.98;101621.76;108018;1256;61106;-68
2023/10/11 03:51:52;;;;;;;10.80;7.00;;;;;;;0.74;74.58;101624.14;107995;1256;72860;-69
2023/10/11 03:54:22;;;;;;;9.70;6.70;;;;;;;0.64;74.52;101621.28;107966;1258;72684;-68
2023/10/11 03:56:53;;;;;;;10.70;7.40;;;;;;;0.56;74.58;101621.80;107988;1258;61138;-68
2023/10/11 03:59:25;;;;;;;11.30;7.50;;;;;;;0.52;74.67;101611.98;107890;1257;61112;-69
2023/10/11 04:01:53;;;;;;;12.80;7.40;;;;;;;0.49;74.46;101614.34;107927;1257;74730;-69
2023/10/11 04:04:21;;;;;;;13.80;8.50;;;;;;;0.50;74.77;101621.80;107960;1258;72715;-68
2023/10/11 04:06:51;;;;;;;14.00;8.70;;;;;;;0.58;74.81;101624.77;107931;1260;72700;-68
2023/10/11 04:09:22;;;;;;;15.80;9.30;;;;;;;0.69;75.02;101631.63;107914;1254;61229;-69
2023/10/11 04:11:56;;;;;;;14.90;9.50;;;;;;;0.73;74.81;101630.39;107931;1259;61263;-69
2023/10/11 04:14:25;;;;;;;13.90;8.80;;;;;;;0.72;74.80;101628.92;107982;1254;74767;-69
2023/10/11 04:17:00;;;;;;;15.00;9.60;;;;;;;0.70;75.05;101629.75;107948;1261;70696;-69
2023/10/11 04:19:31;;;;;;;15.30;9.40;;;;;;;0.69;75.01;101634.06;107965;1259;71443;-69
2023/10/11 04:22:12;;;;;;;13.50;8.80;;;;;;;0.71;75.01;101634.59;107839;1255;60328;-69
2023/10/11 04:24:41;;;;;;;13.90;8.90;;;;;;;0.66;74.98;101639.16;107933;1257;61240;-68
2023/10/11 04:29:53;;;;;;;15.10;9.30;;;;;;;0.53;74.85;101637.12;107947;1260;71748;-69
2023/10/11 04:35:25;;;;;;;13.10;8.30;;;;;;;0.55;75.18;101642.45;107884;1258;60470;-71
2023/10/11 04:38:01;;;;;;;11.60;7.50;;;;;;;0.57;74.87;101645.73;107964;1258;59042;-69
2023/10/11 04:43:08;;;;;;;13.90;9.00;;;;;;;0.60;74.99;101647.46;107993;1257;72721;-69
2023/10/11 04:45:44;;;;;;;13.30;8.20;;;;;;;0.70;75.02;101645.02;107998;1260;71347;-69
2023/10/11 04:48:15;;;;;;;12.60;7.60;;;;;;;0.77;75.29;101650.48;107973;1257;62890;-69
2023/10/11 04:50:48;;;;;;;13.00;7.90;;;;;;;0.79;75.39;101655.84;108011;1258;60371;-69
2023/10/11 04:53:18;;;;;;;13.50;8.20;;;;;;;0.86;75.39;101659.63;108022;1258;73411;-69
2023/10/11 04:55:48;;;;;;;11.20;7.70;;;;;;;0.98;75.38;101653.30;107989;1257;73575;-69
2023/10/11 04:58:39;;;;;;;11.40;7.30;;;;;;;1.08;75.40;101651.08;108046;1257;75047;-70
2023/10/11 05:01:08;;;;;;;11.40;7.20;;;;;;;1.13;75.32;101646.98;108030;1257;60828;-68
2023/10/11 05:03:37;;;;;;;10.50;7.10;;;;;;;1.15;75.25;101648.86;108081;1257;61100;-69
2023/10/11 05:06:13;;;;;;;13.00;7.40;;;;;;;1.22;75.11;101656.56;108000;1258;74651;-70
2023/10/11 05:08:51;;;;;;;12.20;7.70;;;;;;;1.31;75.10;101653.13;108052;1257;72521;-70
2023/10/11 05:11:35;;;;;;;12.40;7.90;;;;;;;1.40;75.23;101655.70;107992;1254;71420;-71
2023/10/11 05:14:10;;;;;;;12.40;7.70;;;;;;;1.51;75.29;101654.42;108003;1258;61168;-70
2023/10/11 05:16:44;;;;;;;11.00;7.60;;;;;;;1.55;75.19;101654.46;108034;1254;61199;-69
2023/10/11 05:19:14;;;;;;;14.30;8.30;;;;;;;1.58;75.20;101656.86;108186;1254;73361;-69
2023/10/11 05:21:43;;;;;;;15.40;8.90;;;;;;;1.61;75.50;101653.66;108185;1254;70467;-69
2023/10/11 05:24:29;;;;;;;12.80;7.80;;;;;;;1.66;75.44;101653.98;108042;1254;71380;-68
2023/10/11 05:27:09;;;;;;;12.30;8.80;;;;;;;1.73;75.77;101654.30;108147;1254;61256;-70
2023/10/11 05:30:06;;;;;;;14.10;7.90;;;;;;;1.83;75.90;101663.50;108147;1254;61179;-69
2023/10/11 05:32:41;;;;;;;12.60;8.10;;;;;;;1.98;76.17;101663.42;108029;1254;73454;-70
2023/10/11 05:51:39;;;;;;;16.70;10.00;;;;;;;3.25;76.22;101673.93;108023;1257;72716;-69
2023/10/11 05:54:08;;;;;;;15.90;10.80;;;;;;;3.39;76.25;101673.50;108002;1257;61246;-69
2023/10/11 05:56:45;;;;;;;18.00;11.40;;;;;;;3.52;76.19;101670.70;108033;1257;61100;-70
2023/10/11 05:59:14;;;;;;;18.00;11.50;;;;;;;3.68;76.09;101673.84;107862;1260;73899;-68
2023/10/11 06:01:45;;;;;;;16.20;12.00;;;;;;;3.83;76.13;101669.09;108008;1257;71129;-68
2023/10/11 06:04:14;;;;;;;21.60;12.80;;;;;;;4.00;76.16;101668.98;107947;1257;72695;-70
2023/10/11 06:06:45;;;;;;;19.10;12.50;;;;;;;4.19;76.43;101670.41;108009;1256;60981;-69
2023/10/11 06:09:16;;;;;;;16.90;11.90;;;;;;;4.38;76.59;101670.37;107923;1256;61988;-69
2023/10/11 06:11:48;;;;;;;18.00;12.50;;;;;;;4.57;76.40;101675.17;107966;1254;74036;-69
2023/10/11 06:14:17;;;;;;;18.70;12.40;;;;;;;4.76;76.42;101677.63;107981;1254;72730;-69
2023/10/11 06:16:49;;;;;;;17.50;11.50;;;;;;;4.95;76.28;101681.58;107880;1254;71373;-70
2023/10/11 06:19:18;;;;;;;18.30;11.50;;;;;;;5.13;76.35;101684.64;107987;1257;60955;-70
2023/10/11 06:21:56;;;;;;;17.90;11.20;;;;;;;5.31;76.20;101679.95;108037;1257;61133;-70
2023/10/11 06:24:35;;;;;;;17.10;11.50;;;;;;;5.50;76.04;101681.58;107885;1255;73458;-68
2023/10/11 06:29:55;;;;;;;17.30;11.30;;;;;;;5.83;75.90;101681.95;107906;1257;72837;-69
2023/10/11 06:32:23;;;;;;;17.40;11.40;;;;;;;5.99;75.78;101676.65;107957;1257;60963;-69
2023/10/11 06:34:51;;;;;;;14.90;10.60;;;;;;;6.17;75.74;101677.40;107956;1257;60622;-69
2023/10/11 06:37:24;;;;;;;14.60;9.80;;;;;;;6.31;75.47;101676.98;107925;1254;74715;-70
2023/10/11 06:42:31;;;;;;;16.30;10.50;;;;;;;6.62;74.78;101672.70;107998;1257;72740;-69
2023/10/11 06:45:05;;;;;;;15.10;10.70;;;;;;;6.77;74.22;101677.68;108020;1257;61139;-70
2023/10/11 06:47:36;;;;;;;14.30;10.10;;;;;;;6.92;73.79;101677.92;107757;1257;326565;-70
2023/10/11 06:50:11;;;;;;;16.40;10.50;;;;;;;7.06;73.29;101674.45;107998;1257;73644;-67
2023/10/11 06:52:44;;;;;;;16.70;11.00;;;;;;;7.19;72.62;101674.06;107998;1259;71556;-69
2023/10/11 06:57:51;;;;;;;16.30;10.90;;;;;;;7.45;70.93;101667.43;107890;1257;60099;-70
2023/10/11 07:00:21;;;;;;;14.40;10.60;;;;;;;7.56;69.94;101669.77;107916;1256;61218;-70
2023/10/11 07:02:54;;;;;;;14.00;9.30;;;;;;;7.66;68.99;101668.50;108021;1256;74857;-70
2023/10/11 07:05:25;;;;;;;13.90;9.80;;;;;;;7.78;67.99;101668.95;108068;1256;72889;-72
2023/10/11 07:07:54;;;;;;;15.40;9.70;;;;;;;7.89;67.06;101664.98;107999;1257;72742;-69
2023/10/11 07:10:33;;;;;;;13.70;9.50;;;;;;;8.00;66.29;101663.58;108020;1256;62201;-71
2023/10/11 07:13:12;;;;;;;15.50;9.80;;;;;;;8.13;65.31;101662.23;108007;1254;61139;-70
2023/10/11 07:15:44;;;;;;;13.90;8.90;;;;;;;8.26;64.37;101662.20;107955;1257;73451;-70
2023/10/11 07:18:25;;;;;;;13.60;9.80;;;;;;;8.34;62.74;101657.89;107886;1258;71855;-70
2023/10/11 07:20:58;;;;;;;13.70;9.70;;;;;;;8.46;62.26;101660.33;107939;1254;72529;-70
2023/10/11 07:23:35;;;;;;;14.90;9.10;;;;;;;8.58;61.60;101660.08;108062;1254;61940;-69
2023/10/11 07:26:23;;;;;;;14.90;9.90;;;;;;;8.67;60.45;101657.14;107936;1256;61106;-69
2023/10/11 07:28:52;;;;;;;13.20;9.30;;;;;;;8.72;59.09;101663.51;107925;1254;73858;-71
2023/10/11 07:31:21;;;;;;;14.50;9.50;;;;;;;8.75;58.54;101661.39;107957;1254;73225;-68
2023/10/11 07:33:55;;;;;;;12.60;8.40;;;;;;;8.84;58.46;101665.05;107829;1257;71449;-69
2023/10/11 07:36:23;;;;;;;12.90;8.90;;;;;;;8.98;57.98;101664.15;107840;1257;61166;-70
2023/10/11 07:38:55;;;;;;;11.70;7.50;;;;;;;9.11;57.33;101665.25;108038;1254;61106;-71
2023/10/11 07:41:27;;;;;;;13.90;8.60;;;;;;;9.26;56.76;101664.70;107981;1254;74657;-69
2023/10/11 07:43:56;;;;;;;12.30;7.80;;;;;;;9.36;55.83;101664.13;108036;1257;72722;-68
2023/10/11 07:46:24;;;;;;;11.20;7.00;;;;;;;9.48;55.17;101661.74;107950;1257;72936;-68
2023/10/11 07:49:04;;;;;;;10.70;6.40;;;;;;;9.60;54.75;101660.42;107991;1257;61234;-70
2023/10/11 07:51:36;;;;;;;11.50;6.80;;;;;;;9.75;53.83;101661.31;108017;1254;61116;-69
2023/10/11 07:54:07;;;;;;;10.80;7.10;;;;;;;9.89;53.55;101659.54;108051;1257;76573;-69
2023/10/11 07:56:38;;;;;;;12.20;6.90;;;;;;;10.05;53.24;101657.36;107955;1256;72750;-68
2023/10/11 07:59:08;;;;;;;10.30;6.40;;;;;;;10.20;52.73;101651.89;107908;1256;72590;-69
2023/10/11 08:01:44;;;;;;;9.80;6.00;;;;;;;10.35;52.14;101644.64;108036;1260;61250;-70
2023/10/11 08:04:12;;;;;;;10.10;6.30;;;;;;;10.49;51.92;101644.17;108095;1254;61305;-69
2023/10/11 08:06:41;;;;;;;9.70;5.80;;;;;;;10.65;51.70;101639.35;108002;1254;74698;-69
2023/10/11 08:09:09;;;;;;;10.60;6.00;;;;;;;10.82;51.39;101634.77;108021;1254;71894;-70
2023/10/11 08:11:44;;;;;;;9.10;5.80;;;;;;;10.94;50.64;101629.98;108081;1254;72699;-70
2023/10/11 08:14:15;;;;;;;10.20;5.80;;;;;;;11.02;49.49;101623.86;108051;1256;59471;-70
2023/10/11 08:16:47;;;;;;;9.90;5.20;;;;;;;11.11;49.49;101624.16;108085;1257;61150;-69
2023/10/11 08:19:15;;;;;;;9.50;5.10;;;;;;;11.25;49.54;101622.09;108076;1254;74622;-69
2023/10/11 08:21:54;;;;;;;9.30;5.70;;;;;;;11.40;49.54;101620.75;107992;1254;73812;-69
2023/10/11 08:24:25;;;;;;;7.40;4.30;;;;;;;11.58;49.11;101620.08;108030;1254;72674;-70
2023/10/11 08:26:57;;;;;;;8.90;4.40;;;;;;;11.69;48.70;101616.73;108075;1254;60762;-68
2023/10/11 08:29:28;;;;;;;6.30;4.00;;;;;;;11.42;48.22;101614.70;107998;1255;61125;-68
2023/10/11 08:31:57;;;;;;;6.40;4.00;;;;;;;11.43;47.56;101616.70;108019;1257;73409;-68
2023/10/11 08:34:28;;;;;;;8.10;3.70;;;;;;;11.49;47.03;101614.83;108026;1256;71969;-69
2023/10/11 08:36:56;;;;;;;5.90;3.30;;;;;;;11.59;46.72;101612.94;107945;1256;72680;-68
2023/10/11 08:39:35;;;;;;;7.90;3.50;;;;;;;11.70;46.11;101612.84;107915;1257;61114;-68
2023/10/11 08:42:06;;;;;;;5.60;3.50;;;;;;;11.93;45.57;101606.21;108016;1257;61122;-70
2023/10/11 08:44:34;;;;;;;7.10;3.10;;;;;;;12.36;44.54;101602.30;107855;1258;74594;-68
2023/10/11 08:47:06;;;;;;;6.70;3.50;;;;;;;12.50;43.92;101605.52;107993;1254;72733;-68
2023/10/11 08:49:34;;;;;;;;;;;;;;;12.60;44.15;101601.73;108024;1257;71740;-70
2023/10/11 08:52:02;;;;;;;6.80;3.60;;;;;;;12.75;43.88;101597.66;107976;1256;61384;-68
2023/10/11 08:54:30;;;;;;;6.00;3.00;;;;;;;12.88;43.48;101601.02;108080;1256;61148;-70
2023/10/11 08:56:58;;;;;;;6.00;3.40;;;;;;;13.00;42.80;101603.38;107946;1254;74663;-69
2023/10/11 08:59:27;;;;;;;5.60;2.90;;;;;;;13.08;42.62;101606.22;107905;1254;72911;-68
2023/10/11 09:01:59;;;;;;;8.20;2.70;;;;;;;13.16;42.09;101599.35;107987;1256;71401;-68
2023/10/11 09:04:27;;;;;;;6.10;2.90;;;;;;;13.22;41.89;101599.93;107961;1254;60114;-67
2023/10/11 09:06:57;;;;;;;5.20;2.90;;;;;;;13.32;41.97;101600.13;107967;1256;61133;-67
2023/10/11 09:09:35;;;;;;;5.00;2.80;;;;;;;13.42;41.72;101592.67;107916;1256;74256;-68
2023/10/11 09:12:23;;;;;;;5.60;2.50;;;;;;;13.48;41.32;101590.61;107975;1254;71569;-67
2023/10/11 09:15:03;;;;;;;4.70;2.40;;;;;;;13.55;41.24;101584.94;108003;1257;72716;-69
2023/10/11 09:17:39;;;;;;;5.30;2.50;;;;;;;13.63;40.37;101585.23;108034;1256;59897;-68
2023/10/11 09:20:23;;;;;;;5.00;2.30;;;;;;;13.63;39.92;101582.77;107947;1256;61017;-69
2023/10/11 09:22:55;;;;;;;5.70;2.40;;;;;;;13.61;39.85;101576.52;107864;1257;74691;-68
2023/10/11 09:25:33;;;;;;;4.20;2.20;;;;;;;13.65;40.26;101578.23;107952;1254;71374;-68
2023/10/11 09:28:04;;;;;;;4.60;1.90;;;;;;;13.76;40.04;101574.22;108054;1254;70444;-67
2023/10/11 09:30:31;;;;;;;4.40;2.20;;;;;;;13.81;39.07;101572.59;107903;1256;61123;-69
2023/10/11 09:32:59;;;;;;;3.70;2.00;;;;;;;13.84;39.23;101565.64;107991;1254;61225;-68
2023/10/11 09:35:27;;;;;;;4.50;2.20;;;;;;;13.85;39.27;101559.52;108063;1256;73561;-69
2023/10/11 09:37:56;;;;;;;4.90;2.10;;;;;;;13.90;39.43;101560.38;107849;1257;71152;-68
2023/10/11 09:40:29;;;;;;;4.90;2.00;;;;;;;13.98;39.21;101555.13;108018;1254;72720;-69
2023/10/11 09:43:00;;;;;;;3.20;1.70;;;;;;;14.07;38.84;101557.53;108145;1254;62679;-69
2023/10/11 09:45:47;;;;;;;3.80;1.90;;;;;;;14.14;38.35;101556.04;108003;1256;61714;-68
2023/10/11 09:48:19;;;;;;;3.50;1.70;;;;;;;14.17;38.13;101552.50;108048;1255;73513;-68
2023/10/11 09:50:49;;;;;;;3.80;1.70;;;;;;;14.24;38.11;101545.04;108051;1255;72968;-68
2023/10/11 09:53:17;;;;;;;4.40;2.00;;;;;;;14.32;38.17;101542.73;107956;1257;72654;-68
2023/10/11 09:55:52;;;;;;;4.40;2.10;;;;;;;14.44;38.21;101533.94;107889;1256;61233;-69
2023/10/11 09:58:31;;;;;;;3.70;1.90;;;;;;;14.55;37.54;101526.36;108101;1256;61151;-68
2023/10/11 10:01:12;;;;;;;4.10;2.10;;;;;;;14.26;37.94;101525.48;107838;1257;74781;-69
2023/10/11 10:03:47;;;;;;;4.40;2.00;;;;;;;14.34;37.10;101528.50;108087;1254;72883;-67
2023/10/11 10:06:18;;;;;;;4.70;2.20;;;;;;;14.57;36.95;101520.89;107927;1257;72757;-70
2023/10/11 10:09:23;;;;;;;4.70;1.80;;;;;;;14.65;36.92;101518.73;107885;1257;61148;-69
2023/10/11 10:12:09;;;;;;;5.30;2.10;;;;;;;14.71;36.30;101521.99;107938;1256;61151;-68
2023/10/11 10:14:37;;;;;;;5.60;1.90;;;;;;;14.75;36.02;101512.59;107980;1255;73419;-67
2023/10/11 10:17:15;;;;;;;5.20;2.20;;;;;;;14.79;36.01;101509.61;108015;1254;71805;-66
2023/10/11 10:19:44;;;;;;;5.50;2.00;;;;;;;14.86;36.29;101502.76;108072;1254;71069;-69
2023/10/11 10:22:16;;;;;;;5.00;2.50;;;;;;;14.94;36.32;101500.48;107853;1257;61129;-70
2023/10/11 10:24:45;;;;;;;9.50;2.70;;;;;;;14.99;35.23;101495.27;107998;1256;61125;-68
2023/10/11 10:27:33;;;;;;;4.20;2.10;;;;;;;14.91;35.57;101492.08;108059;1254;75160;-68
2023/10/11 10:30:06;;;;;;;4.30;2.40;;;;;;;14.98;35.80;101496.34;108129;1254;72450;-69
2023/10/11 10:32:34;;;;;;;4.10;2.00;;;;;;;15.08;35.77;101491.70;108110;1254;70573;-68
2023/10/11 10:35:20;;;;;;;3.60;1.90;;;;;;;15.13;34.73;101481.76;108039;1256;61295;-69
2023/10/11 10:37:55;;;;;;;5.20;1.90;;;;;;;15.15;34.50;101474.34;108099;1254;61231;-68
2023/10/11 10:40:25;;;;;;;3.60;2.00;;;;;;;15.22;34.93;101476.89;108170;1254;73708;-68
2023/10/11 10:43:09;;;;;;;4.10;2.00;;;;;;;15.32;34.87;101475.56;108149;1254;72583;-69
2023/10/11 10:45:36;;;;;;;3.40;1.80;;;;;;;15.40;34.35;101469.73;108064;1254;70101;-68
2023/10/11 10:48:39;;;;;;;4.90;2.30;;;;;;;15.43;33.91;101460.83;108086;1254;61208;-68
2023/10/11 10:51:08;;;;;;;3.90;2.10;;;;;;;15.39;33.62;101460.92;107927;1254;61119;-67
2023/10/11 10:53:50;;;;;;;3.60;1.90;;;;;;;15.36;33.69;101461.46;108116;1254;74711;-69
2023/10/11 10:56:26;;;;;;;5.40;2.20;;;;;;;15.37;33.29;101451.73;107992;1254;71343;-69
2023/10/11 10:59:04;;;;;;;4.30;2.20;;;;;;;15.37;33.44;101455.92;108071;1254;72724;-69
2023/10/11 11:01:34;;;;;;;4.40;2.20;;;;;;;15.37;33.40;101452.44;108101;1254;61250;-69
2023/10/11 11:04:07;;;;;;;4.30;2.10;;;;;;;15.40;33.47;101446.89;108137;1254;60149;-69
2023/10/11 11:06:46;;;;;;;4.60;2.20;;;;;;;15.44;33.07;101441.66;108081;1254;74303;-70
2023/10/11 11:09:15;;;;;;;5.10;2.30;;;;;;;15.44;33.59;101440.16;108095;1254;72578;-69
2023/10/11 11:11:43;;;;;;;7.20;2.30;;;;;;;15.52;34.09;101430.05;108121;1254;72600;-69
2023/10/11 11:14:19;;;;;;;4.30;2.10;;;;;;;15.61;33.84;101422.29;108109;1257;61397;-70
2023/10/11 11:16:54;;;;;;;4.40;2.10;;;;;;;15.64;33.66;101424.61;108127;1254;61129;-67
2023/10/11 11:19:34;;;;;;;3.60;2.00;;;;;;;15.62;33.61;101412.27;108103;1254;74619;-69
2023/10/11 11:22:11;;;;;;;3.40;1.60;;;;;;;15.54;33.28;101413.46;108109;1254;73083;-68
2023/10/11 11:24:41;;;;;;;3.20;1.60;;;;;;;15.45;32.74;101419.59;108028;1254;71272;-69
2023/10/11 11:27:25;;;;;;;3.90;1.80;;;;;;;15.31;33.23;101423.02;108065;1257;60115;-69
2023/10/11 11:29:54;;;;;;;5.50;1.90;;;;;;;15.18;33.52;101420.84;108024;1254;61446;-70
2023/10/11 11:32:36;;;;;;;3.90;1.50;;;;;;;15.11;33.68;101417.55;108033;1254;74742;-69
2023/10/11 11:35:09;;;;;;;3.80;1.70;;;;;;;15.07;34.08;101414.91;108026;1256;73152;-68
2023/10/11 11:37:39;;;;;;;4.00;1.80;;;;;;;15.04;33.83;101413.34;108017;1256;71414;-69
2023/10/11 11:40:24;;;;;;;3.80;1.80;;;;;;;14.98;33.71;101410.95;107949;1256;61253;-68
2023/10/11 11:42:52;;;;;;;5.60;1.70;;;;;;;14.96;33.88;101404.27;108049;1254;61100;-67
2023/10/11 11:45:25;;;;;;;4.80;2.20;;;;;;;15.00;33.38;101404.66;108024;1254;76612;-67
2023/10/11 11:47:56;;;;;;;4.70;1.90;;;;;;;15.09;32.99;101408.56;108055;1256;73265;-69
2023/10/11 11:50:25;;;;;;;4.00;2.00;;;;;;;15.19;32.87;101407.88;107931;1256;72948;-67
2023/10/11 11:52:57;;;;;;;4.70;2.00;;;;;;;15.32;32.67;101410.86;107887;1256;61311;-67
2023/10/11 11:55:26;;;;;;;5.00;2.00;;;;;;;15.44;32.19;101415.98;108059;1254;60389;-67
2023/10/11 11:57:54;;;;;;;4.20;2.00;;;;;;;15.47;31.84;101415.19;108023;1257;75103;-67
2023/10/11 12:02:54;;;;;;;3.60;1.90;;;;;;;15.28;31.00;101411.66;107772;1254;71516;-67
2023/10/11 12:05:27;;;;;;;4.10;1.80;;;;;;;15.06;30.71;101409.48;108063;1255;61109;-66
2023/10/11 12:07:58;;;;;;;4.00;1.80;;;;;;;14.88;31.09;101411.73;108071;1254;61308;-69
2023/10/11 12:10:26;;;;;;;5.30;1.80;;;;;;;14.82;31.62;101409.09;108036;1254;74903;-67
2023/10/11 12:13:05;;;;;;;3.60;1.90;;;;;;;14.83;31.69;101407.05;107966;1256;73047;-66
2023/10/11 12:15:33;;;;;;;4.90;2.10;;;;;;;14.85;31.29;101409.15;107945;1256;72763;-67
2023/10/11 12:18:05;;;;;;;3.70;2.10;;;;;;;14.91;31.57;101398.67;108020;1256;61586;-67
2023/10/11 12:20:36;;;;;;;4.10;1.90;;;;;;;15.01;31.66;101396.92;108063;1254;61128;-67
2023/10/11 12:23:11;;;;;;;4.00;1.90;;;;;;;15.08;31.40;101389.98;108086;1254;76717;-67
2023/10/11 12:25:39;;;;;;;3.90;2.10;;;;;;;15.17;31.44;101382.91;107986;1256;72340;-69